CFB Cold Lake

CYOD | YOD

Cold Lake , Alberta , Canada

Sunday, June 7th, 2020 | 00:43

Weather

CYOD 070607Z 08010KT 4SM -RA BR OVC010 09/07 A2970 RMK ST8 SLP070

Charts

No Charts Available

Gates

49 Available

Runways

3 Available

Active ATC

Events -Coming Soon-

1 Events Coming Up Soon

Next event:
CYOD Flyout